Time;durP1;ratioP1;P1;durP2;ratioP2;P2;SDS_P1;SDS_P2;PMS_P1;PMS_P2;Temp;Humidity;BMP_temperature;BMP_pressure;BME280_temperature;BME280_humidity;BME280_pressure;Samples;Min_cycle;Max_cycle;Signal;HPM_P1;HPM_P2
2021/12/11 00:00:17;;;;;;;28.38;16.15;;;;;;;-2.88;100.00;98916.56;5015238;28;20571;-77
2021/12/11 00:02:45;;;;;;;26.67;15.48;;;;;;;-2.90;100.00;98924.41;5016295;28;20041;-77
2021/12/11 00:05:15;;;;;;;28.85;16.52;;;;;;;-2.96;100.00;98924.38;5014823;28;20390;-77
2021/12/11 00:07:42;;;;;;;26.70;15.45;;;;;;;-3.01;100.00;98939.19;5014868;28;20116;-77
2021/12/11 00:10:19;;;;;;;30.83;16.70;;;;;;;-2.98;100.00;98945.28;5016038;28;20026;-77
2021/12/11 00:12:53;;;;;;;30.20;16.70;;;;;;;-2.97;100.00;98954.00;5016022;28;20033;-77
2021/12/11 00:15:24;;;;;;;29.77;17.20;;;;;;;-2.94;100.00;98954.03;5015855;28;20120;-77
2021/12/11 00:17:56;;;;;;;32.70;17.83;;;;;;;-2.88;100.00;98958.38;5016076;28;20026;-77
2021/12/11 00:20:26;;;;;;;32.42;17.50;;;;;;;-2.90;100.00;98970.56;5015286;28;20029;-77
2021/12/11 00:22:53;;;;;;;30.58;17.23;;;;;;;-2.93;100.00;98974.91;5015711;28;20112;-77
2021/12/11 00:25:19;;;;;;;31.88;17.65;;;;;;;-2.97;100.00;98980.13;5015691;28;20053;-77
2021/12/11 00:27:47;;;;;;;33.95;19.00;;;;;;;-2.96;100.00;98989.69;5015331;28;20455;-77
2021/12/11 00:30:24;;;;;;;32.88;17.65;;;;;;;-2.83;100.00;98986.28;5014559;28;20489;-77
2021/12/11 00:32:58;;;;;;;29.08;17.65;;;;;;;-2.77;100.00;98987.16;5015807;28;20033;-77
2021/12/11 00:35:23;;;;;;;29.08;17.75;;;;;;;-2.82;100.00;98988.03;5014532;28;20160;-77
2021/12/11 00:37:49;;;;;;;31.50;18.75;;;;;;;-2.90;100.00;98989.72;5015280;28;20462;-77
2021/12/11 00:40:25;;;;;;;37.08;20.17;;;;;;;-2.96;100.00;98989.69;5015654;28;20026;-77
2021/12/11 00:43:02;;;;;;;32.45;17.88;;;;;;;-2.97;100.00;98990.56;5015927;28;20045;-77
2021/12/11 00:45:31;;;;;;;32.30;17.98;;;;;;;-3.06;100.00;98992.28;5014071;28;20029;-77
2021/12/11 00:48:00;;;;;;;30.17;17.33;;;;;;;-3.10;100.00;98992.25;5015180;28;20026;-77
2021/12/11 00:50:50;;;;;;;27.92;16.23;;;;;;;-3.19;100.00;99000.91;5015806;28;20028;-77
2021/12/11 00:53:29;;;;;;;29.60;17.67;;;;;;;-3.17;100.00;99009.66;5015143;28;20030;-77
2021/12/11 00:55:58;;;;;;;26.45;16.55;;;;;;;-3.19;100.00;99013.97;5015312;28;20073;-77
2021/12/11 00:58:32;;;;;;;30.55;16.10;;;;;;;-3.19;100.00;99021.78;5015256;28;20377;-77
2021/12/11 01:01:07;;;;;;;29.55;16.70;;;;;;;-3.09;100.00;99028.81;5013784;28;20065;-77
2021/12/11 01:03:34;;;;;;;32.00;18.48;;;;;;;-3.15;100.00;99027.06;5014984;28;20489;-77
2021/12/11 01:06:09;;;;;;;31.17;17.38;;;;;;;-3.06;100.00;99028.84;5015108;28;20025;-77
2021/12/11 01:08:40;;;;;;;33.47;17.98;;;;;;;-3.05;100.00;99034.94;5014969;28;20021;-77
2021/12/11 01:11:17;;;;;;;27.02;15.75;;;;;;;-2.99;100.00;99042.78;5013842;28;20556;-77
2021/12/11 01:14:14;;;;;;;31.70;17.30;;;;;;;-2.97;100.00;99050.66;5015695;28;20030;-77
2021/12/11 01:16:42;;;;;;;29.10;15.88;;;;;;;-2.98;100.00;99051.50;5015750;28;20385;-77
2021/12/11 01:19:16;;;;;;;28.83;16.63;;;;;;;-2.87;100.00;99060.28;5015058;28;20026;-77
2021/12/11 01:21:45;;;;;;;29.48;17.25;;;;;;;-2.95;100.00;99067.22;5015394;28;20108;-77
2021/12/11 01:24:29;;;;;;;30.15;18.35;;;;;;;-2.98;100.00;99069.78;5014758;28;20026;-77
2021/12/11 01:26:55;;;;;;;;;;;;;;;-2.86;100.00;99077.69;5015400;28;20082;-77
2021/12/11 01:29:27;;;;;;;23.95;15.13;;;;;;;-2.84;100.00;99081.22;5014790;28;19963;-77
2021/12/11 01:31:56;;;;;;;28.77;15.85;;;;;;;-2.85;100.00;99089.91;5032117;23;20034;-74
2021/12/11 01:34:22;;;;;;;29.55;16.75;;;;;;;-2.82;100.00;99089.06;5014642;28;20029;-74
2021/12/11 01:36:48;;;;;;;28.02;16.52;;;;;;;-2.84;100.00;99099.50;5014603;28;20026;-74
2021/12/11 01:39:19;;;;;;;32.60;16.63;;;;;;;-2.84;100.00;99106.47;5014366;28;20089;-74
2021/12/11 01:41:46;;;;;;;28.52;15.50;;;;;;;-2.83;100.00;99102.97;5014721;28;20038;-74
2021/12/11 01:44:19;;;;;;;30.42;15.93;;;;;;;-2.86;100.00;99109.03;5014629;28;20026;-74
2021/12/11 01:46:45;;;;;;;29.50;15.45;;;;;;;-2.91;100.00;99110.75;5013678;28;20120;-74
2021/12/11 01:49:15;;;;;;;24.75;16.08;;;;;;;-2.92;100.00;99111.66;5014538;28;20025;-74
2021/12/11 01:51:53;;;;;;;25.55;15.32;;;;;;;-2.94;100.00;99123.81;5014564;28;20022;-74
2021/12/11 01:54:27;;;;;;;28.73;15.93;;;;;;;-3.01;100.00;99125.50;5014280;28;20026;-74
2021/12/11 01:57:00;;;;;;;29.80;16.98;;;;;;;-3.08;100.00;99135.06;5014396;28;20378;-75
2021/12/11 01:59:35;;;;;;;28.90;17.02;;;;;;;-3.09;100.00;99141.13;5014267;28;20489;-75
2021/12/11 02:02:03;;;;;;;29.58;16.90;;;;;;;-3.14;100.00;99142.81;5013183;28;20037;-74
2021/12/11 02:04:32;;;;;;;28.27;17.20;;;;;;;-3.10;100.00;99144.63;5014285;28;20036;-75
2021/12/11 02:07:04;;;;;;;30.35;16.98;;;;;;;-3.07;100.00;99147.25;5012672;28;20056;-75
2021/12/11 02:09:35;;;;;;;30.50;17.15;;;;;;;-3.00;100.00;99149.91;5012671;28;20566;-75
2021/12/11 02:12:07;;;;;;;30.88;17.77;;;;;;;-3.04;100.00;99157.69;5014224;28;20109;-75
2021/12/11 02:14:38;;;;;;;27.55;16.20;;;;;;;-2.93;100.00;99159.53;5012610;28;20487;-74
2021/12/11 02:17:04;;;;;;;27.70;17.40;;;;;;;-2.94;100.00;99158.63;5012577;28;20034;-74
2021/12/11 02:19:33;;;;;;;30.85;17.17;;;;;;;-2.93;100.00;99165.63;5012485;28;20095;-74
2021/12/11 02:22:01;;;;;;;29.67;17.70;;;;;;;-2.91;100.00;99173.47;5013806;28;20026;-75
2021/12/11 02:24:34;;;;;;;29.15;17.48;;;;;;;-2.94;100.00;99176.06;5012445;28;20484;-74
2021/12/11 02:27:05;;;;;;;29.35;18.20;;;;;;;-2.96;100.00;99181.28;5012346;28;20399;-74
2021/12/11 02:29:35;;;;;;;34.35;18.08;;;;;;;-2.99;100.00;99188.22;5013699;28;20439;-74
2021/12/11 02:32:17;;;;;;;29.90;18.92;;;;;;;-3.01;100.00;99190.81;5012345;28;20079;-75
2021/12/11 02:34:51;;;;;;;27.98;17.77;;;;;;;-2.96;100.00;99201.28;5012328;28;20454;-74
2021/12/11 02:37:23;;;;;;;31.58;17.20;;;;;;;-2.93;100.00;99206.53;5012914;28;20025;-74
2021/12/11 02:39:55;;;;;;;30.73;17.17;;;;;;;-2.86;100.00;99208.34;5013554;28;20091;-75
2021/12/11 02:42:31;;;;;;;31.15;17.20;;;;;;;-2.95;100.00;99216.13;5012327;28;20033;-74
2021/12/11 02:45:13;;;;;;;28.17;16.48;;;;;;;-2.96;100.00;99222.19;5018983;28;20029;-75
2021/12/11 02:47:44;;;;;;;30.77;16.90;;;;;;;-2.79;100.00;99231.91;5020034;28;20041;-75
2021/12/11 02:50:33;;;;;;;29.67;16.60;;;;;;;-2.78;100.00;99236.28;5019987;28;20026;-75
2021/12/11 02:53:08;;;;;;;31.02;17.58;;;;;;;-2.86;100.00;99246.69;5018746;28;20080;-74
2021/12/11 02:55:51;;;;;;;27.83;16.38;;;;;;;-2.89;100.00;99250.13;5018772;28;20044;-74
2021/12/11 02:58:22;;;;;;;29.98;17.08;;;;;;;-2.87;100.00;99251.03;5018751;28;20018;-74
2021/12/11 03:01:02;;;;;;;25.40;14.98;;;;;;;-2.71;100.00;99253.75;5020159;28;20026;-74
2021/12/11 03:03:33;;;;;;;32.58;17.20;;;;;;;-2.76;100.00;99260.69;5020217;28;20029;-74
2021/12/11 03:06:08;;;;;;;26.58;16.55;;;;;;;-2.69;100.00;99262.47;5018524;28;20479;-74
2021/12/11 03:08:36;;;;;;;31.35;17.40;;;;;;;-2.69;100.00;99257.25;5019028;28;20071;-74
2021/12/11 03:11:07;;;;;;;29.83;17.05;;;;;;;-2.66;100.00;99259.91;5018561;28;20018;-74
2021/12/11 03:13:34;;;;;;;27.35;15.32;;;;;;;-2.55;100.00;99266.94;5020339;28;20418;-74
2021/12/11 03:16:00;;;;;;;26.42;15.50;;;;;;;-2.56;100.00;99270.41;5019934;28;20026;-75
2021/12/11 03:18:26;;;;;;;29.40;16.23;;;;;;;-2.63;100.00;99265.13;5019816;28;20029;-75
2021/12/11 03:20:52;;;;;;;30.30;16.75;;;;;;;-2.65;100.00;99274.69;5019940;28;20032;-75
2021/12/11 03:23:18;;;;;;;28.08;15.60;;;;;;;-2.65;100.00;99272.09;5018418;28;20113;-75
2021/12/11 03:25:45;;;;;;;26.65;14.93;;;;;;;-2.63;100.00;99280.81;5018526;28;20125;-74
2021/12/11 03:28:13;;;;;;;28.52;15.05;;;;;;;-2.64;100.00;99276.47;5019941;28;20057;-75
2021/12/11 03:30:43;;;;;;;30.50;16.63;;;;;;;-2.61;100.00;99281.72;5019670;28;20481;-74
2021/12/11 03:33:15;;;;;;;27.08;15.07;;;;;;;-2.56;100.00;99283.47;5019528;28;20034;-75
2021/12/11 03:35:41;;;;;;;27.45;16.17;;;;;;;-2.58;100.00;99288.72;5019953;28;20022;-74
2021/12/11 03:38:09;;;;;;;23.52;14.55;;;;;;;-2.61;100.00;99293.91;5018285;28;20094;-75
2021/12/11 03:40:35;;;;;;;23.95;14.15;;;;;;;-2.56;100.00;99293.94;5019533;28;20033;-75
2021/12/11 03:43:02;;;;;;;27.05;14.20;;;;;;;-2.54;100.00;99294.81;5018277;28;20030;-74
2021/12/11 03:45:32;;;;;;;22.73;14.02;;;;;;;-2.53;100.00;99296.59;5019538;28;20025;-74
2021/12/11 03:48:04;;;;;;;26.95;14.07;;;;;;;-2.65;100.00;99295.59;5019910;28;20030;-74
2021/12/11 03:50:29;;;;;;;25.05;15.35;;;;;;;-2.72;100.00;99288.59;5020137;28;20024;-74
2021/12/11 03:52:56;;;;;;;27.95;14.70;;;;;;;-2.55;100.00;99293.94;5018173;28;20022;-75
2021/12/11 03:55:27;;;;;;;25.95;14.52;;;;;;;-2.66;100.00;99298.22;5017214;28;20026;-74
2021/12/11 03:57:59;;;;;;;27.35;16.83;;;;;;;-2.60;100.00;99299.13;5016297;28;20108;-74
2021/12/11 04:00:33;;;;;;;26.40;15.20;;;;;;;-2.58;100.00;99302.63;5015554;28;20022;-74
2021/12/11 04:03:03;;;;;;;25.48;15.75;;;;;;;-2.64;100.00;99313.06;5016416;28;20060;-74
2021/12/11 04:05:32;;;;;;;28.50;16.65;;;;;;;-2.49;100.00;99325.38;5016503;28;20062;-75
2021/12/11 04:07:58;;;;;;;31.10;17.65;;;;;;;-2.51;100.00;99328.84;5016065;28;20021;-74
2021/12/11 04:10:27;;;;;;;34.08;17.08;;;;;;;-2.48;100.00;99334.97;5016085;28;20112;-74
2021/12/11 04:12:53;;;;;;;38.42;18.02;;;;;;;-2.44;100.00;99325.41;5016034;28;20368;-75
2021/12/11 04:15:18;;;;;;;26.63;16.67;;;;;;;-2.47;100.00;99330.59;5014817;28;20498;-74
2021/12/11 04:17:44;;;;;;;29.60;16.35;;;;;;;-2.47;100.00;99330.59;5015931;28;20049;-74
2021/12/11 04:20:16;;;;;;;28.33;17.25;;;;;;;-2.40;100.00;99339.38;5015873;28;20030;-74
2021/12/11 04:22:43;;;;;;;29.35;16.92;;;;;;;-2.45;100.00;99360.28;5015829;28;20029;-74
2021/12/11 04:25:11;;;;;;;31.98;16.83;;;;;;;-2.45;100.00;99359.38;5015892;28;20467;-74
2021/12/11 04:27:37;;;;;;;31.13;16.63;;;;;;;-2.38;100.00;99364.69;5015990;28;20439;-74
2021/12/11 04:30:08;;;;;;;29.52;17.70;;;;;;;-2.45;100.00;99373.34;5015744;28;20104;-74
2021/12/11 04:32:35;;;;;;;29.80;17.90;;;;;;;-2.45;100.00;99383.81;5014284;28;20108;-75
2021/12/11 04:35:03;;;;;;;29.73;18.98;;;;;;;-2.50;100.00;99383.75;5014380;28;20137;-75
2021/12/11 04:37:30;;;;;;;30.70;17.50;;;;;;;-2.47;100.00;99389.00;5014156;28;20022;-75
2021/12/11 04:40:12;;;;;;;30.27;17.80;;;;;;;-2.40;100.00;99395.19;5015466;28;20026;-75
2021/12/11 04:42:54;;;;;;;29.23;17.77;;;;;;;-2.46;100.00;99400.34;5014287;28;20108;-75
2021/12/11 04:45:43;;;;;;;28.38;17.45;;;;;;;-2.38;100.00;99396.06;5015083;28;20091;-75
2021/12/11 04:48:28;;;;;;;29.15;17.17;;;;;;;-2.37;100.00;99400.41;5015365;28;20017;-74
2021/12/11 04:51:46;;;;;;;28.95;17.05;;;;;;;-2.39;100.00;99407.38;5014152;28;20022;-75
2021/12/11 05:06:57;;;;;;;29.25;17.15;;;;;;;-2.15;100.00;99439.84;5015182;28;20029;-75
2021/12/11 05:09:31;;;;;;;31.05;18.25;;;;;;;-2.10;100.00;99436.38;5015083;28;20021;-74
2021/12/11 05:14:51;;;;;;;33.28;19.08;;;;;;;-2.10;100.00;99447.72;5012824;28;20084;-75
2021/12/11 05:17:18;;;;;;;29.42;17.05;;;;;;;-2.10;100.00;99454.69;5014922;28;20065;-75
2021/12/11 05:19:44;;;;;;;30.30;16.40;;;;;;;-2.15;100.00;99458.16;5013542;28;20105;-75
2021/12/11 05:22:12;;;;;;;28.33;16.83;;;;;;;-2.03;100.00;99472.19;5013434;28;20469;-75
2021/12/11 05:24:40;;;;;;;31.95;17.67;;;;;;;-1.98;100.00;99467.88;5015005;28;20100;-75
2021/12/11 05:27:06;;;;;;;29.70;15.65;;;;;;;-1.88;100.00;99467.97;5014672;28;20022;-75
2021/12/11 05:29:33;;;;;;;33.67;17.63;;;;;;;-1.89;100.00;99477.56;5014701;28;20537;-75
2021/12/11 05:31:59;;;;;;;32.60;17.40;;;;;;;-1.85;100.00;99478.44;5013255;28;20446;-75
2021/12/11 05:34:24;;;;;;;34.97;19.55;;;;;;;-1.88;100.00;99484.50;5014638;28;20037;-74
2021/12/11 05:36:50;;;;;;;32.45;17.20;;;;;;;-1.88;100.00;99481.91;5013168;28;20029;-75
2021/12/11 05:39:18;;;;;;;33.95;18.02;;;;;;;-1.88;100.00;99494.13;5014380;28;20112;-74
2021/12/11 05:41:45;;;;;;;30.83;17.27;;;;;;;-1.87;100.00;99488.00;5014472;28;20029;-74
2021/12/11 05:44:11;;;;;;;31.98;17.00;;;;;;;-1.88;100.00;99486.28;5013363;28;20041;-75
2021/12/11 05:46:38;;;;;;;30.00;17.25;;;;;;;-1.88;100.00;99499.38;5013034;28;20116;-75
2021/12/11 05:49:04;;;;;;;32.97;16.95;;;;;;;-1.97;100.00;99493.19;5014338;28;20475;-75
2021/12/11 05:51:38;;;;;;;27.48;15.73;;;;;;;-2.00;100.00;99501.00;5013035;28;20034;-77
2021/12/11 05:54:07;;;;;;;32.70;17.23;;;;;;;-2.03;100.00;99503.59;5014315;28;20029;-77
2021/12/11 05:56:36;;;;;;;31.95;16.35;;;;;;;-2.07;100.00;99499.19;5012685;28;20030;-77
2021/12/11 05:59:07;;;;;;;30.77;16.52;;;;;;;-2.05;100.00;99495.72;5012726;28;20036;-77
2021/12/11 06:01:35;;;;;;;27.27;15.48;;;;;;;-2.16;100.00;99508.72;5014382;28;20437;-77
2021/12/11 06:04:06;;;;;;;29.08;15.82;;;;;;;-2.24;100.00;99515.59;5014312;28;20097;-77
2021/12/11 06:06:32;;;;;;;27.17;16.33;;;;;;;-2.25;100.00;99521.72;5012702;28;20041;-77
2021/12/11 06:08:58;;;;;;;28.65;16.63;;;;;;;-2.31;100.00;99519.00;5012755;28;20025;-77
2021/12/11 06:11:24;;;;;;;27.88;16.30;;;;;;;-2.27;100.00;99533.91;5012668;28;20033;-77
2021/12/11 06:13:49;;;;;;;29.65;16.55;;;;;;;-2.23;100.00;99532.16;5014032;28;20029;-77
2021/12/11 06:16:15;;;;;;;30.73;18.83;;;;;;;-2.23;100.00;99543.53;5013838;28;20067;-77
2021/12/11 06:18:42;;;;;;;32.78;18.10;;;;;;;-2.23;100.00;99546.13;5013287;28;20157;-74
2021/12/11 06:21:08;;;;;;;36.95;17.83;;;;;;;-2.20;100.00;99538.31;5013903;28;20029;-73
2021/12/11 06:23:33;;;;;;;34.40;17.95;;;;;;;-2.21;100.00;99539.19;5012488;28;20030;-73
2021/12/11 06:25:58;;;;;;;31.13;17.73;;;;;;;-2.18;100.00;99556.63;5012540;28;20036;-73
2021/12/11 06:28:26;;;;;;;30.55;18.40;;;;;;;-2.20;100.00;99561.00;5013675;28;20101;-73
2021/12/11 06:30:57;;;;;;;35.10;19.42;;;;;;;-2.20;100.00;99563.59;5013721;28;20423;-73
2021/12/11 06:33:24;;;;;;;32.20;18.90;;;;;;;-2.22;100.00;99571.44;5013657;28;20395;-73
2021/12/11 06:35:55;;;;;;;37.17;18.02;;;;;;;-2.20;100.00;99574.06;5013568;28;20108;-73
2021/12/11 06:38:25;;;;;;;31.73;17.10;;;;;;;-2.14;100.00;99585.47;5012837;28;20058;-73
2021/12/11 06:40:52;;;;;;;33.17;18.23;;;;;;;-2.14;100.00;99589.84;5013511;28;20030;-73
2021/12/11 06:43:17;;;;;;;30.55;17.38;;;;;;;-2.14;100.00;99590.69;5013543;28;20057;-73
2021/12/11 06:45:43;;;;;;;30.60;17.80;;;;;;;-2.15;100.00;99603.78;5013808;28;20041;-73
2021/12/11 06:48:09;;;;;;;32.20;18.60;;;;;;;-2.18;100.00;99620.31;5012251;28;20064;-73
2021/12/11 06:50:35;;;;;;;28.48;17.83;;;;;;;-2.22;100.00;99629.00;5013495;28;20029;-74
2021/12/11 06:53:07;;;;;;;27.45;16.52;;;;;;;-2.18;100.00;99630.78;5013479;28;20030;-73
2021/12/11 06:55:32;;;;;;;34.35;18.77;;;;;;;-2.29;100.00;99635.88;5012139;28;20160;-73
2021/12/11 06:57:57;;;;;;;29.40;17.27;;;;;;;-2.25;100.00;99640.28;5013344;28;20022;-74
2021/12/11 07:00:23;;;;;;;30.83;16.65;;;;;;;-2.21;100.00;99638.56;5012051;28;20395;-73
2021/12/11 07:02:48;;;;;;;30.65;18.27;;;;;;;-2.17;100.00;99650.84;5013360;28;20365;-74
2021/12/11 07:05:14;;;;;;;31.58;19.02;;;;;;;-2.13;100.00;99650.00;5013388;28;20022;-74
2021/12/11 07:07:42;;;;;;;34.90;18.63;;;;;;;-2.09;100.00;99665.75;5013264;28;20453;-73
2021/12/11 07:10:12;;;;;;;31.73;18.63;;;;;;;-2.19;100.00;99673.47;5013310;28;20018;-73
2021/12/11 07:12:39;;;;;;;28.88;16.83;;;;;;;-2.16;100.00;99664.78;5012074;28;20116;-74
2021/12/11 07:15:07;;;;;;;31.20;15.98;;;;;;;-2.17;100.00;99676.13;5013269;28;20022;-74
2021/12/11 07:17:34;;;;;;;29.15;16.45;;;;;;;-2.18;100.00;99671.75;5011955;28;20022;-73
2021/12/11 07:20:00;;;;;;;27.90;16.75;;;;;;;-2.23;100.00;99690.00;5013192;28;20042;-73
2021/12/11 07:22:25;;;;;;;28.50;15.60;;;;;;;-2.30;100.00;99689.06;5013148;28;20093;-74
2021/12/11 07:25:03;;;;;;;25.30;15.27;;;;;;;-2.17;100.00;99697.06;5013203;28;20494;-73
2021/12/11 07:27:29;;;;;;;30.45;16.77;;;;;;;-2.17;100.00;99697.94;5013362;28;20116;-74
2021/12/11 07:29:54;;;;;;;29.60;17.52;;;;;;;-2.19;100.00;99702.25;5013272;28;20096;-73
2021/12/11 07:32:20;;;;;;;26.38;15.70;;;;;;;-2.12;100.00;99703.22;5027732;22;20044;-75
2021/12/11 07:34:45;;;;;;;32.80;18.33;;;;;;;-2.17;100.00;99716.25;5016637;28;20441;-75
2021/12/11 07:37:12;;;;;;;31.63;17.50;;;;;;;-2.13;100.00;99723.28;5016566;28;20036;-73
2021/12/11 07:39:37;;;;;;;32.50;18.55;;;;;;;-2.13;100.00;99720.66;5015232;28;20052;-73
2021/12/11 07:42:03;;;;;;;29.98;18.55;;;;;;;-2.16;100.00;99718.00;5016850;28;20417;-73
2021/12/11 07:44:28;;;;;;;35.20;18.15;;;;;;;-2.14;100.00;99724.13;5016885;28;20461;-73
2021/12/11 07:46:56;;;;;;;35.50;17.92;;;;;;;-2.15;100.00;99729.34;5016454;28;20037;-73
2021/12/11 07:49:22;;;;;;;31.60;17.27;;;;;;;-1.89;100.00;99736.66;5016262;28;20022;-75
2021/12/11 07:51:49;;;;;;;46.67;29.30;;;;;;;-1.99;100.00;99740.91;5016498;28;20552;-75
2021/12/11 07:54:15;;;;;;;31.42;18.75;;;;;;;-2.05;100.00;99746.03;5016595;28;20053;-75
2021/12/11 07:56:40;;;;;;;35.45;19.25;;;;;;;-2.02;100.00;99751.31;5016213;28;20072;-75
2021/12/11 07:59:08;;;;;;;33.30;19.33;;;;;;;-2.02;100.00;99751.31;5014826;28;20034;-73
2021/12/11 08:01:36;;;;;;;34.03;18.50;;;;;;;-2.00;100.00;99761.78;5014900;28;20584;-75
2021/12/11 08:04:03;;;;;;;41.28;19.92;;;;;;;-1.98;100.00;99760.94;5016387;28;20100;-76
2021/12/11 08:06:29;;;;;;;32.92;18.52;;;;;;;-1.89;100.00;99769.78;5014791;28;20474;-75
2021/12/11 08:08:55;;;;;;;35.90;20.52;;;;;;;-1.84;100.00;99774.22;5016246;28;20060;-75
2021/12/11 08:11:21;;;;;;;33.85;18.80;;;;;;;-1.70;100.00;99774.38;5016594;28;20021;-75
2021/12/11 08:13:50;;;;;;;50.15;27.98;;;;;;;-1.77;100.00;99777.78;5016623;28;20077;-75
2021/12/11 08:16:20;;;;;;;36.53;21.00;;;;;;;-1.88;100.00;99775.03;5016328;28;20022;-75
2021/12/11 08:18:46;;;;;;;35.75;21.02;;;;;;;-1.92;100.00;99779.38;5016336;28;20032;-75
2021/12/11 08:21:12;;;;;;;33.38;20.25;;;;;;;-1.89;100.00;99780.25;5014749;28;20025;-73
2021/12/11 08:23:43;;;;;;;36.08;20.45;;;;;;;-1.87;100.00;99782.03;5015705;28;20445;-73
2021/12/11 08:26:09;;;;;;;33.35;19.15;;;;;;;-1.85;100.00;99792.50;5014892;28;20072;-73
2021/12/11 08:28:35;;;;;;;34.65;19.67;;;;;;;-1.82;100.00;99789.94;5015661;28;20026;-75
2021/12/11 08:31:01;;;;;;;36.15;20.20;;;;;;;-1.77;100.00;99787.38;5016150;28;20022;-74
2021/12/11 08:33:27;;;;;;;34.92;19.88;;;;;;;-1.74;100.00;99792.66;5015519;28;20112;-74
2021/12/11 08:35:53;;;;;;;35.40;20.27;;;;;;;-1.70;100.00;99795.31;5015481;28;20057;-75
2021/12/11 08:38:18;;;;;;;41.45;20.45;;;;;;;-1.67;100.00;99804.09;5015411;28;20021;-76
2021/12/11 08:40:51;;;;;;;37.90;21.63;;;;;;;-1.61;100.00;99815.53;5015704;28;20431;-75
2021/12/11 08:43:19;;;;;;;40.95;22.25;;;;;;;-1.54;100.00;99815.56;5014463;28;20018;-75
2021/12/11 08:46:00;;;;;;;34.40;19.90;;;;;;;-1.54;100.00;99818.19;5015337;28;20129;-75
2021/12/11 08:48:27;;;;;;;34.20;20.63;;;;;;;-1.14;100.00;99809.94;5015327;28;20511;-76
2021/12/11 08:51:01;;;;;;;34.42;20.67;;;;;;;-1.25;100.00;99800.22;5015219;28;20057;-76
2021/12/11 08:53:27;;;;;;;36.42;19.90;;;;;;;-1.19;100.00;99806.38;5014151;28;20410;-76
2021/12/11 08:55:54;;;;;;;34.05;19.83;;;;;;;-1.09;100.00;99812.59;5015439;28;20026;-76
2021/12/11 08:58:21;;;;;;;38.85;19.98;;;;;;;-1.05;100.00;99824.84;5015579;28;20131;-76
2021/12/11 09:01:01;;;;;;;37.55;20.05;;;;;;;-1.15;100.00;99830.00;5015270;28;20176;-76
2021/12/11 09:03:50;;;;;;;33.33;19.60;;;;;;;-1.16;100.00;99827.38;5015741;28;20033;-76
2021/12/11 09:06:22;;;;;;;31.02;18.90;;;;;;;-1.24;100.00;99827.28;5015495;28;20030;-75
2021/12/11 09:08:57;;;;;;;35.60;20.35;;;;;;;-1.33;100.00;99828.06;5015209;28;20029;-75
2021/12/11 09:11:30;;;;;;;37.03;20.98;;;;;;;-1.39;100.00;99833.25;5014968;28;20022;-76
2021/12/11 09:14:05;;;;;;;35.50;20.80;;;;;;;-1.34;100.00;99842.03;5013562;28;20033;-76
2021/12/11 09:16:41;;;;;;;35.63;20.02;;;;;;;-1.39;100.00;99855.06;5014604;28;20486;-76
2021/12/11 09:19:25;;;;;;;35.03;20.83;;;;;;;-1.35;100.00;99849.00;5014718;28;20487;-76
2021/12/11 09:22:01;;;;;;;37.53;21.45;;;;;;;-1.30;100.00;99862.16;5014911;28;20026;-76
2021/12/11 09:25:05;;;;;;;41.35;21.33;;;;;;;-1.37;100.00;99862.94;5014898;28;20022;-76
2021/12/11 09:27:46;;;;;;;32.97;20.00;;;;;;;-1.24;100.00;99871.84;5014770;28;20397;-75
2021/12/11 09:30:47;;;;;;;37.22;20.25;;;;;;;-1.39;100.00;99883.00;5014424;28;20029;-75
2021/12/11 09:33:17;;;;;;;31.85;20.70;;;;;;;-1.32;100.00;99879.59;5007070;28;20045;-75
2021/12/11 09:36:06;;;;;;;34.65;20.38;;;;;;;-1.32;100.00;99883.97;5014289;28;20068;-75
2021/12/11 09:38:42;;;;;;;33.53;20.92;;;;;;;-1.31;100.00;99897.06;5008241;28;20034;-76
2021/12/11 09:41:20;;;;;;;34.42;21.35;;;;;;;-1.30;100.00;99901.44;5014144;28;20116;-75
2021/12/11 09:43:56;;;;;;;36.75;20.88;;;;;;;-1.31;100.00;99899.69;5013809;28;20116;-76
2021/12/11 09:46:27;;;;;;;37.55;21.48;;;;;;;-1.12;100.00;99907.78;5014421;28;20038;-76
2021/12/11 09:48:54;;;;;;;40.03;22.52;;;;;;;-1.13;100.00;99911.25;5013255;28;20477;-76
2021/12/11 09:51:26;;;;;;;38.78;22.08;;;;;;;-1.18;100.00;99923.41;5014123;28;20049;-76
2021/12/11 09:53:55;;;;;;;41.80;22.20;;;;;;;-1.12;100.00;99928.75;5013470;28;20022;-76
2021/12/11 09:56:31;;;;;;;34.65;21.80;;;;;;;-0.91;100.00;99932.47;5014071;28;20036;-76
2021/12/11 09:58:59;;;;;;;34.20;20.27;;;;;;;-0.90;100.00;99934.22;5014358;28;20466;-76
2021/12/11 10:01:32;;;;;;;37.05;21.15;;;;;;;-0.96;100.00;99929.81;5014178;28;20029;-76
2021/12/11 10:04:03;;;;;;;35.60;21.23;;;;;;;-0.57;100.00;99942.47;5013983;28;20490;-76
2021/12/11 10:06:50;;;;;;;36.10;20.10;;;;;;;-0.75;100.00;99954.53;5012501;28;20060;-76
2021/12/11 10:09:24;;;;;;;35.22;20.13;;;;;;;-0.79;100.00;99956.22;5012621;28;20018;-76
2021/12/11 10:11:51;;;;;;;32.75;20.30;;;;;;;-0.70;100.00;99970.31;5014103;28;20474;-75
2021/12/11 10:14:20;;;;;;;33.85;20.02;;;;;;;-0.64;100.00;99970.34;5014370;28;20030;-76
2021/12/11 10:16:51;;;;;;;32.03;19.58;;;;;;;-0.50;100.00;99973.13;5014161;28;20040;-76
2021/12/11 10:19:19;;;;;;;32.42;20.40;;;;;;;-0.57;100.00;99966.06;5014305;28;20178;-76
2021/12/11 10:21:52;;;;;;;36.67;22.02;;;;;;;-0.43;100.00;99973.19;5013607;28;20050;-76
2021/12/11 10:24:23;;;;;;;29.48;19.35;;;;;;;-0.23;100.00;99979.50;5013802;28;20083;-76
2021/12/11 10:26:51;;;;;;;30.58;20.02;;;;;;;-0.46;100.00;99982.78;5013676;28;20478;-76
2021/12/11 10:29:17;;;;;;;31.80;19.80;;;;;;;-0.27;100.00;99993.47;5013654;28;20076;-76
2021/12/11 10:31:49;;;;;;;33.78;22.05;;;;;;;-0.43;100.00;99995.06;5013736;28;20538;-76
2021/12/11 10:34:21;;;;;;;36.72;23.20;;;;;;;-0.48;100.00;99995.00;5013968;28;20034;-76
2021/12/11 10:36:53;;;;;;;37.88;23.27;;;;;;;-0.42;100.00;99994.19;5014032;28;20080;-76
2021/12/11 10:39:19;;;;;;;38.75;24.15;;;;;;;-0.76;100.00;100002.56;5014141;28;20057;-76
2021/12/11 10:41:45;;;;;;;42.75;24.15;;;;;;;-0.64;100.00;99998.31;5014075;28;20030;-76
2021/12/11 10:44:18;;;;;;;42.05;23.98;;;;;;;-0.58;100.00;99999.28;5013409;28;20080;-75
2021/12/11 10:46:47;;;;;;;37.08;22.40;;;;;;;-0.43;100.00;100008.16;5013617;28;20080;-75
2021/12/11 10:49:14;;;;;;;42.90;25.17;;;;;;;-0.25;100.00;100014.47;5013311;28;20505;-75
2021/12/11 10:51:54;;;;;;;43.60;24.90;;;;;;;-0.41;100.00;100016.94;5012137;28;20022;-75
2021/12/11 10:54:20;;;;;;;43.05;25.35;;;;;;;-0.57;100.00;100018.53;5014088;28;20506;-75
2021/12/11 10:56:47;;;;;;;42.28;24.48;;;;;;;-0.39;100.00;100019.59;5013304;28;20030;-75
2021/12/11 10:59:26;;;;;;;50.95;26.10;;;;;;;-0.27;100.00;100024.06;5013391;28;20034;-76
2021/12/11 11:01:54;;;;;;;44.65;26.23;;;;;;;-0.65;100.00;100028.94;5014027;28;20036;-76
2021/12/11 11:04:27;;;;;;;45.78;25.85;;;;;;;-0.39;100.00;100023.09;5014075;28;20030;-76
2021/12/11 11:06:53;;;;;;;53.50;27.33;;;;;;;-0.65;100.00;100031.56;5017292;28;20072;-76
2021/12/11 11:09:21;;;;;;;51.10;28.42;;;;;;;-0.92;100.00;100025.06;5017082;28;20314;-75
2021/12/11 11:11:48;;;;;;;54.38;30.20;;;;;;;-0.88;100.00;100024.28;5016997;28;20040;-75
2021/12/11 11:14:17;;;;;;;59.78;30.95;;;;;;;-0.70;100.00;100022.75;5017450;28;20026;-75
2021/12/11 11:16:46;;;;;;;59.30;29.63;;;;;;;-0.66;100.00;100031.50;5016809;28;20080;-75
2021/12/11 11:19:12;;;;;;;61.60;33.33;;;;;;;-0.44;100.00;100043.16;5016664;28;20021;-75
2021/12/11 11:21:42;;;;;;;52.28;31.20;;;;;;;-0.82;100.00;100036.56;5015529;28;20103;-74
2021/12/11 11:24:11;;;;;;;58.75;32.30;;;;;;;-0.96;100.00;100039.03;5015498;28;20080;-74
2021/12/11 11:26:40;;;;;;;60.88;35.38;;;;;;;-0.87;100.00;100043.50;5017873;28;20018;-76
2021/12/11 11:29:08;;;;;;;63.42;33.85;;;;;;;-0.63;100.00;100050.81;5018467;28;20041;-75
2021/12/11 11:31:38;;;;;;;59.92;30.95;;;;;;;-0.86;100.00;100054.00;5019678;28;20026;-75
2021/12/11 11:34:07;;;;;;;53.63;30.65;;;;;;;-0.77;100.00;100055.84;5016544;28;20061;-75
2021/12/11 11:36:34;;;;;;;55.92;29.42;;;;;;;-0.55;100.00;100066.63;5016642;28;20040;-75
2021/12/11 11:39:05;;;;;;;51.88;29.90;;;;;;;-0.69;100.00;100066.44;5016535;28;20049;-75